Main page
METAR-TAF:

METAR-TAF

Airports :

Perpignan, France

Perpignan–Rivesaltes Airport

latitude: 42-44N, longitude: 002-52E, elevation: 43 m

Current weather observation

The report was made 19 minutes ago, at 03:30 UTC
Wind 7 kt from the West
Temperature 13°C
Humidity 62%
Pressure 1022 hPa
Visibility 10 km or more
no clouds below 1500 m and no cumulonimbus

METAR: LFMP 200330Z AUTO 28007KT CAVOK 13/06 Q1022 NOSIG

Time: 05:49 (03:49 UTC)

Forecast

The report was made 1 hour and 49 minutes ago, at 02:00 UTC
Forecast valid from 20 at 03 UTC to 21 at 03 UTC
Wind 8 kt from the West/Northwest
Visibility 10 km or more
no clouds below 1500 m and no cumulonimbus
Becoming
from 20 at 07 UTC to 20 at 11 UTC
Wind 5 kt from variable directions

TAF: LFMP 200200Z 2003/2103 30008KT CAVOK BECMG 2007/2011 VRB05KT

Weather observations and forecasts of more than 4000 airports (METAR and TAF reports).

The available stations are represented by yellow and red dots on the map.

Hover mouse over dot to see the name of the station.

Then click to see weather observations and forecasts.

To change the map : click on the green buttons with a black cross to zoom in, on the green button with a dash to zoom out, or on the green arrows for adjacent maps.


METAR-TAF: